Latest Weather Observations for Newcastle Nobbys

IDN60901

Issued at 5:01 pm EDT Wednesday 22 February 2017 (issued every 10 minutes, with the page automatically refreshed every 10 minutes)

About weather observations | Map of Sydney area stations | Latest observations for Sydney area | Other Formats
Station Details ID: 061055 Name: NEWCASTLE NOBBYS SIGNAL STATION AWS Lat: -32.92 Lon: 151.80 Height: 33.0 m
Data from the previous 72 hours. | See also: Recent months at Newcastle Nobbys
Date/Time
EDT
Temp
°C
App
Temp
°C
Dew
Point
°C
Rel
Hum
%
Delta-T
°C
Wind Press
QNH
hPa
Press
MSL
hPa
Rain since
9am
mm
Dir  Spd
km/h
Gust
km/h
Spd
kts
Gust
kts
22/04:30pm 23.6 20.1 17.8 70 3.6 ENE 33 46 18 25 - - 0.0
22/04:00pm 23.7 19.4 17.9 70 3.6 E 37 46 20 25 - - 0.0
22/03:30pm 23.7 19.7 17.7 69 3.7 E 35 44 19 24 - - 0.0
22/03:00pm 23.9 20.0 17.9 69 3.8 E 35 43 19 23 - - 0.0
22/02:30pm 23.9 19.9 17.6 68 3.9 E 35 41 19 22 - - 0.0
22/02:00pm 24.1 20.5 17.6 67 4.1 E 33 39 18 21 - - 0.0
22/01:30pm 24.1 20.1 17.6 67 4.1 E 35 39 19 21 - - 0.0
22/01:00pm 24.1 20.5 17.6 67 4.1 E 33 39 18 21 - - 0.0
22/12:30pm 24.1 20.6 17.4 66 4.2 E 32 37 17 20 - - 0.0
22/12:00pm 24.1 21.0 17.6 67 4.1 E 30 35 16 19 - - 0.0
22/11:30am 24.2 22.9 18.2 69 3.8 E 22 28 12 15 - - 0.0
22/11:00am 24.7 24.8 18.4 68 4.0 E 15 20 8 11 - - 0.0
22/10:30am 24.7 24.6 17.9 66 4.3 ENE 15 20 8 11 - - 0.0
22/10:00am 24.5 24.5 18.0 67 4.1 ENE 15 20 8 11 - - 0.0
22/09:30am 23.7 23.6 17.9 70 3.6 ENE 15 20 8 11 - - 0.0
22/09:00am 22.5 22.9 18.1 76 2.7 NE 13 19 7 10 - - 0.0
22/08:30am 21.8 22.5 18.0 79 2.4 NE 11 19 6 10 - - 0.0
22/08:00am 20.8 21.5 18.0 84 1.7 NE 11 15 6 8 - - 0.0
22/07:30am 21.0 22.1 18.0 83 1.9 NE 9 15 5 8 - - 0.0
22/07:00am 20.8 21.7 17.6 82 2.0 ENE 9 13 5 7 - - 0.0
22/06:30am 20.6 21.4 17.4 82 2.0 ENE 9 13 5 7 - - 0.0
22/06:00am 20.6 21.5 17.6 83 1.8 ENE 9 11 5 6 - - 0.0
22/05:30am 20.7 20.8 17.5 82 2.0 ENE 13 17 7 9 - - 0.0
22/05:00am 20.6 21.4 18.2 86 1.5 ENE 11 13 6 7 - - 0.0
22/04:30am 20.9 22.3 17.9 83 1.9 ENE 7 13 4 7 - - 0.0
22/04:00am 21.0 21.6 17.6 81 2.1 NE 11 17 6 9 - - 0.0
22/03:30am 20.9 21.5 17.7 82 2.0 ENE 11 13 6 7 - - 0.0
22/03:00am 20.9 21.5 17.7 82 2.0 ENE 11 15 6 8 - - 0.0
22/02:30am 20.9 21.8 18.3 85 1.6 ENE 11 13 6 7 - - 0.0
22/02:00am 20.9 21.8 18.3 85 1.6 ENE 11 13 6 7 - - 0.0
22/01:30am 21.3 21.6 17.9 81 2.1 ENE 13 15 7 8 - - 0.0
22/01:00am 21.4 21.6 17.6 79 2.3 ENE 13 17 7 9 - - 0.0
22/12:30am 21.4 21.5 17.4 78 2.5 ENE 13 17 7 9 - - 0.0
22/12:00am 21.6 21.8 17.6 78 2.5 ENE 13 17 7 9 - - 0.0
 
Date/Time
EDT
Temp
°C
App
Temp
°C
Dew
Point
°C
Rel
Hum
%
Delta-T
°C
Wind Press
QNH
hPa
Press
MSL
hPa
Rain since
9am
mm
Dir  Spd
km/h
Gust
km/h
Spd
kts
Gust
kts
21/11:30pm 21.7 21.7 17.3 76 2.7 ENE 13 17 7 9 - - 0.0
21/11:00pm 21.8 21.0 17.0 74 2.9 ENE 17 22 9 12 - - 0.0
21/10:30pm 22.0 20.9 16.3 70 3.5 NE 17 26 9 14 - - 0.0
21/10:00pm 21.7 20.9 17.1 75 2.8 NE 17 22 9 12 - - 0.0
21/09:30pm 21.9 21.0 16.8 73 3.1 NE 17 22 9 12 - - 0.0
21/09:00pm 21.8 20.5 16.7 73 3.1 ENE 19 28 10 15 - - 0.0
21/08:30pm 22.0 20.3 17.2 74 3.0 ENE 22 26 12 14 - - 0.0
21/08:00pm 22.1 19.5 16.8 72 3.2 ENE 26 32 14 17 - - 0.0
21/07:30pm 22.5 19.5 16.8 70 3.5 ENE 28 35 15 19 - - 0.0
21/07:00pm 22.6 19.8 17.3 72 3.3 E 28 35 15 19 - - 0.0
21/06:30pm 22.9 20.9 18.2 75 2.9 E 26 30 14 16 - - 0.0
21/06:00pm 23.2 21.6 17.4 70 3.6 E 22 26 12 14 - - 0.0
21/05:30pm 23.3 21.3 17.3 69 3.7 E 24 28 13 15 - - 0.0
21/05:00pm 23.5 21.5 17.5 69 3.7 E 24 30 13 16 - - 0.0
21/04:30pm 23.6 21.9 17.1 67 4.0 E 22 28 12 15 - - 0.0
21/04:00pm 24.0 22.3 17.3 66 4.2 E 22 26 12 14 - - 0.0
21/03:30pm 24.0 22.3 17.3 66 4.2 E 22 26 12 14 - - 0.0
21/03:00pm 23.9 22.6 17.2 66 4.1 ESE 20 24 11 13 - - 0.0
21/02:30pm 24.1 24.1 18.1 69 3.8 SE 15 19 8 10 - - 0.0
21/02:00pm 23.7 23.6 17.9 70 3.6 SSE 15 17 8 9 - - 0.0
21/01:30pm 23.1 22.6 17.8 72 3.3 S 17 17 9 9 - - 0.0
21/01:00pm 23.0 22.3 18.3 75 3.0 S 19 20 10 11 - - 0.0
21/12:30pm 22.7 21.7 17.6 73 3.2 S 19 20 10 11 - - 0.0
21/12:00pm 22.7 21.9 17.2 71 3.4 S 17 19 9 10 - - 0.0
21/11:30am 22.6 22.0 16.6 69 3.7 S 15 17 8 9 - - 0.0
21/11:00am 22.6 22.0 16.6 69 3.7 S 15 17 8 9 - - 0.0
21/10:30am 21.9 21.2 16.4 71 3.3 S 15 17 8 9 - - 0.0
21/10:00am 21.9 22.1 16.8 73 3.1 S 11 13 6 7 - - 0.0
21/09:30am 21.4 21.6 16.8 75 2.8 S 11 13 6 7 - - 0.0
21/09:00am 20.8 21.4 16.8 78 2.4 S 9 13 5 7 - - 0.0
21/08:30am 20.3 21.0 16.1 77 2.5 SSW 7 11 4 6 - - 0.0
21/08:00am 20.8 22.9 17.2 80 2.2 SSE 2 7 1 4 - - 0.0
21/07:30am 19.4 20.6 15.9 80 2.1 W 4 6 2 3 - - 0.0
21/07:00am 19.2 20.7 15.7 80 2.1 WSW 2 2 1 1 - - 0.0
21/06:30am 19.0 19.7 15.7 81 2.0 W 6 6 3 3 - - 0.0
21/06:00am 19.3 20.9 16.0 81 2.0 NW 2 2 1 1 - - 0.0
21/05:30am 19.5 20.9 16.5 83 1.8 SSW 4 6 2 3 - - 0.0
21/05:00am 19.3 21.2 16.7 85 1.6 SW 2 4 1 2 - - 0.0
21/04:30am 19.3 21.0 16.2 82 1.9 ESE 2 4 1 2 - - 0.0
21/04:00am 19.3 21.0 16.2 82 1.9 NE 2 4 1 2 - - 0.0
21/03:30am 19.6 20.6 16.3 81 2.0 NE 6 7 3 4 - - 0.0
21/03:00am 19.9 20.6 16.2 79 2.2 NE 7 11 4 6 - - 0.0
21/02:30am 20.0 20.5 15.6 76 2.6 NE 7 9 4 5 - - 0.0
21/02:00am 20.0 20.2 14.8 72 3.0 NE 7 11 4 6 - - 0.0
21/01:30am 20.2 21.1 15.0 72 3.1 NNE 4 7 2 4 - - 0.0
21/01:00am 20.3 20.2 14.9 71 3.2 NE 9 13 5 7 - - 0.0
21/12:30am 20.4 19.8 14.7 70 3.3 NE 11 17 6 9 - - 0.0
21/12:00am 20.7 19.8 14.8 69 3.5 NNE 13 17 7 9 - - 0.0
 
Date/Time
EDT
Temp
°C
App
Temp
°C
Dew
Point
°C
Rel
Hum
%
Delta-T
°C
Wind Press
QNH
hPa
Press
MSL
hPa
Rain since
9am
mm
Dir  Spd
km/h
Gust
km/h
Spd
kts
Gust
kts
20/11:30pm 20.9 19.9 14.5 67 3.7 NNE 13 19 7 10 - - 0.0
20/11:00pm 20.7 20.4 14.4 67 3.7 NNE 9 15 5 8 - - 0.0
20/10:30pm 20.7 19.7 14.6 68 3.6 NNE 13 17 7 9 - - 0.0
20/10:00pm 20.8 19.5 14.7 68 3.6 NNE 15 19 8 10 - - 0.0
20/09:30pm 21.1 19.6 14.3 65 4.0 NNE 15 19 8 10 - - 0.0
20/09:00pm 21.0 20.3 14.2 65 4.0 NNE 11 17 6 9 - - 0.0
20/08:30pm 21.2 19.6 13.9 63 4.2 NNE 15 19 8 10 - - 0.0
20/08:00pm 21.6 19.4 15.0 66 3.9 NE 20 24 11 13 - - 0.0
20/07:30pm 21.7 20.1 15.1 66 3.9 ENE 17 24 9 13 - - 0.0
20/07:00pm 22.5 20.5 13.8 58 5.1 ENE 17 22 9 12 - - 0.0
20/06:30pm 22.8 20.5 14.1 58 5.1 E 19 22 10 12 - - 0.0
20/06:00pm 22.7 19.1 12.0 50 6.0 ESE 22 28 12 15 - - 0.0
20/05:30pm 22.8 18.2 12.4 52 5.9 SE 28 32 15 17 - - 0.0
20/05:00pm 23.1 18.3 11.5 48 6.5 SE 28 32 15 17 - - 0.0
20/04:30pm 22.7 17.6 12.0 50 6.0 SE 30 33 16 18 - - 0.0
20/04:00pm 22.8 17.9 11.2 48 6.5 SE 28 32 15 17 - - 0.0
20/03:30pm 22.7 17.4 11.1 48 6.5 SE 30 32 16 17 - - 0.0
20/03:00pm 22.8 18.6 12.4 52 5.9 SE 26 32 14 17 - - 0.0
20/02:30pm 23.3 19.2 11.4 47 6.7 ESE 24 33 13 18 - - 0.0
20/02:00pm 25.7 23.3 9.9 37 8.7 W 13 30 7 16 - - 0.0
20/01:30pm 26.1 22.8 8.1 32 9.7 WNW 15 30 8 16 - - 0.0
20/01:00pm 25.9 22.5 7.5 31 9.8 WNW 15 26 8 14 - - 0.0
20/12:30pm 25.6 21.6 9.0 35 9.0 NW 20 30 11 16 - - 0.0
20/12:00pm 24.3 20.7 6.6 32 9.2 W 15 28 8 15 - - 0.0
20/11:30am 24.1 18.9 7.3 34 8.8 W 24 32 13 17 - - 0.0
20/11:00am 23.1 17.4 6.8 35 8.4 W 26 35 14 19 - - 0.0
20/10:30am 22.4 17.4 6.6 36 8.1 W 22 30 12 16 - - 0.0
20/10:00am 21.9 16.6 6.6 37 7.8 WNW 24 35 13 19 - - 0.0
20/09:30am 20.9 16.1 5.7 37 7.6 WSW 20 35 11 19 - - 0.0
20/09:00am 20.5 15.4 6.1 39 7.2 W 22 28 12 15 - - 0.2
20/08:30am 19.9 15.4 5.9 40 7.0 W 19 24 10 13 - - 0.2
20/08:00am 19.1 15.5 6.9 45 6.1 W 15 20 8 11 - - 0.2
20/07:30am 18.5 15.1 7.6 49 5.5 W 15 20 8 11 - - 0.2
20/07:00am 18.3 15.4 6.5 46 5.9 W 11 15 6 8 - - 0.2
20/06:30am 19.0 16.0 5.8 42 6.5 WSW 11 15 6 8 - - 0.2
20/06:00am 19.0 15.9 7.1 46 6.0 WSW 13 19 7 10 - - 0.2
20/05:30am 19.6 16.0 4.9 38 7.1 WSW 13 19 7 10 - - 0.2
20/05:00am 19.9 16.6 4.8 37 7.3 SW 11 20 6 11 - - 0.2
20/04:30am 20.2 16.8 5.8 39 7.2 WSW 13 17 7 9 - - 0.2
20/04:00am 20.1 17.1 9.1 49 5.8 W 15 22 8 12 - - 0.2
20/03:30am 20.9 18.0 9.8 49 6.0 WSW 15 22 8 12 - - 0.2
20/03:00am 20.1 18.4 12.6 62 4.2 W 13 19 7 10 - - 0.2
20/02:30am 19.4 19.4 15.1 76 2.5 WSW 9 15 5 8 - - 0.2
20/02:00am 20.3 21.8 18.8 91 0.9 SSW 9 15 5 8 - - 0.2
20/01:30am 20.6 23.1 19.1 91 0.9 SSW 4 7 2 4 - - 0.2
20/01:00am 20.7 22.8 19.0 90 1.1 SSW 6 11 3 6 - - 0.2
20/12:30am 20.7 22.3 19.2 91 0.9 W 9 11 5 6 - - 0.2
20/12:00am 21.0 23.0 19.1 89 1.2 WNW 7 9 4 5 - - 0.2
 
Date/Time
EDT
Temp
°C
App
Temp
°C
Dew
Point
°C
Rel
Hum
%
Delta-T
°C
Wind Press
QNH
hPa
Press
MSL
hPa
Rain since
9am
mm
Dir  Spd
km/h
Gust
km/h
Spd
kts
Gust
kts
19/11:30pm 20.7 21.3 18.5 87 1.4 SW 13 20 7 11 - - 0.2
19/11:00pm 21.0 22.9 18.9 88 1.3 WSW 7 13 4 7 - - 0.2
19/10:30pm 20.6 22.4 18.7 89 1.2 SW 7 13 4 7 - - 0.2
19/10:00pm 20.6 22.5 18.9 90 1.1 W 7 9 4 5 - - 0.2
19/09:30pm 20.6 22.6 18.7 89 1.2 NNW 6 9 3 5 - - 0.2
19/09:00pm 20.6 22.6 18.7 89 1.2 WNW 6 7 3 4 - - 0.2
19/08:30pm 20.6 23.2 18.5 88 1.3 NW 2 4 1 2 - - 0.2
19/08:00pm 20.8 21.4 18.6 87 1.4 NNW 13 17 7 9 - - 0.2
19/07:30pm 20.6 21.0 18.2 86 1.5 N 13 15 7 8 - - 0.2
19/07:00pm 20.6 22.4 18.7 89 1.2 N 7 9 4 5 - - 0.2
19/06:30pm 20.7 22.4 18.5 87 1.4 NNE 7 9 4 5 - - 0.2
19/06:00pm 21.1 23.8 18.7 86 1.5 SSE 2 4 1 2 - - 0.2
19/05:30pm 21.1 23.4 18.5 85 1.6 SW 4 7 2 4 - - 0.2

Latest Capital City Observations: Canberra | Sydney | Melbourne | Brisbane | Adelaide | Perth | Hobart | Darwin

Other Formats:

Comma delimited format used in spreadsheet applications
http://www.bom.gov.au/fwo/IDN60901/IDN60901.94774.axf

JavaScript Object Notation format (JSON) in row-major order
http://www.bom.gov.au/fwo/IDN60901/IDN60901.94774.json